• Join FlightAware (Why Join?)
  • Login
  • US Flag 
11:26PM EDT


 

Airport Tracker/Info


-or-


 

Live Flight TrackerFlight Track Log ✈ EJA831 ✈ 03-Dec-2013 ✈ KAUS - KADS

Flight Track Log - Related Links

Times and Time Zones

All times are in EST time to prevent confusion due to time zone crossing. See the EJA831 flight status page for this flight to view local times or setup timezone preferences in your user account.

Time Position Orientation Groundspeed Altitude Reporting Facility
EST Latitude Longitude Course Direction KTS MPH feet Rate Location/Type
11:18AM 30.1464 -97.5528 54° Northeast 270 311 5,600  Level Houston Center
11:19AM 30.2161 -97.5083 29° Northeast 283 326 9,200 3,360 Climbing Houston Center
11:20AM 30.3028 -97.4578 27° Northeast 292 336 12,600 2,880 Climbing Houston Center
11:21AM 30.3881 -97.4072 27° Northeast 335 386 15,200 2,460 Climbing Houston Center
11:22AM 30.6109 -97.5480 45° Northeast  Level Estimated
11:22AM 30.4744 -97.3556 27° Northeast 347 399 17,700  Level Houston Center
11:23AM 30.6609 -97.4669 54° Northeast  Level FlightAware Approximate
11:23AM 30.5628 -97.3025 27° Northeast 353 406 20,000  Level Houston Center
11:24AM 30.6444 -97.2125 43° Northeast 409 471 20,000  Level Houston Center
11:25AM 30.7375 -97.1025 45° Northeast 410 472 20,000  Level Houston Center
11:26AM 30.8169 -97.0075 46° Northeast 411 473 20,000  Level Houston Center
11:27AM 30.8961 -96.9108 46° Northeast 412 474 20,000  Level Houston Center
11:28AM 30.9767 -96.8153 45° Northeast 412 474 20,000  Level Houston Center
11:29AM 31.0569 -96.7169 46° Northeast 416 479 20,000  Level Houston Center
11:30AM 31.1381 -96.6186 46° Northeast 418 481 20,000  Level Houston Center
11:31AM 31.2331 -96.5042 46° Northeast 417 480 20,000  Level Houston Center
11:32AM 31.3275 -96.4381 31° Northeast 403 464 20,000  Level Houston Center
11:33AM 31.4336 -96.4308 North 381 438 20,000  Level Houston Center
11:35AM 31.5397 -96.4258 North 378 435 20,000  Level Houston Center
11:36AM 31.6475 -96.4189 North 383 441 20,000  Level Houston Center
11:37AM 31.7550 -96.4119 North 383 441 20,000 -900 Level Houston Center
11:38AM 31.8806 -96.4047 North 384 442 18,200 -2,040 Descending Houston Center
11:39AM 31.9811 -96.3989 North 356 410 15,900 -1,980 Descending Houston Center
11:40AM 32.0778 -96.3936 North 352 405 14,200 -1,500 Descending Houston Center
11:41AM 32.1800 -96.3850 North 347 399 12,600 -1,620 Descending Fort Worth Center
11:42AM 32.2933 -96.3786 North 341 392 10,700 -1,680 Descending Fort Worth Center
11:43AM 32.3769 -96.3728 North 310 357 9,200 -840 Descending Fort Worth Center
11:44AM 32.4544 -96.3783 357° North 285 328 9,000 -540 Descending Fort Worth Center
11:45AM 32.5222 -96.4186 333° Northwest 273 314 8,200 -900 Descending Fort Worth Center
11:46AM 32.5872 -96.4578 333° Northwest 266 306 7,200 -960 Descending Fort Worth Center
11:47AM 32.6517 -96.4969 333° Northwest 261 300 6,200 -600 Descending Fort Worth Center
11:48AM 32.7281 -96.5478 331° Northwest 263 303 6,000 -540 Descending Fort Worth Center
11:49AM 32.7897 -96.5939 328° Northwest 265 305 5,200 -960 Descending Fort Worth Center
11:50AM 32.8503 -96.6283 334° Northwest 251 289 4,100 -1,140 Descending Fort Worth Center
11:51AM 32.9000 -96.6500 340° North 215 247 3,400 -660 Descending Dallas / Fort Worth TRACON
11:52AM 32.9500 -96.6833 331° Northwest 209 241 3,000 -240 Descending Dallas / Fort Worth TRACON
11:53AM 32.9833 -96.7167 320° Northwest 213 245 3,000  Level Dallas / Fort Worth TRACON
11:54AM 33.0333 -96.7667 320° Northwest 205 236 3,000  Level Dallas / Fort Worth TRACON
11:55AM 33.0667 -96.8167 309° West 173 199 3,000 -120 Level Dallas / Fort Worth TRACON
11:56AM 33.0500 -96.8500 239° Southwest 154 177 2,800 -780 Descending Dallas / Fort Worth TRACON
11:57AM 33.0167 -96.8500 180° South 173 199 1,500 -780 Descending Dallas / Fort Worth TRACON
11:58AM 32.9528 -96.8333 168° South 153 176 800 -420 Descending Fort Worth Center